sensor_id;sensor_type;location;lat;lon;timestamp;P1;durP1;ratioP1;P2;durP2;ratioP2
72373;SDS011;60349;64.132;-21.820;2023-03-16T00:00:31;2.47;;;0.38;;
72373;SDS011;60349;64.132;-21.820;2023-03-16T00:02:57;2.55;;;0.38;;
72373;SDS011;60349;64.132;-21.820;2023-03-16T00:05:23;1.63;;;0.05;;
72373;SDS011;60349;64.132;-21.820;2023-03-16T00:07:49;1.13;;;0.30;;
72373;SDS011;60349;64.132;-21.820;2023-03-16T00:10:16;0.75;;;0.10;;
72373;SDS011;60349;64.132;-21.820;2023-03-16T00:12:42;0.75;;;0.08;;
72373;SDS011;60349;64.132;-21.820;2023-03-16T00:15:09;1.10;;;0.03;;
72373;SDS011;60349;64.132;-21.820;2023-03-16T00:17:35;3.05;;;0.15;;
72373;SDS011;60349;64.132;-21.820;2023-03-16T00:20:01;3.20;;;0.05;;
72373;SDS011;60349;64.132;-21.820;2023-03-16T00:22:31;0.60;;;0.00;;
72373;SDS011;60349;64.132;-21.820;2023-03-16T00:24:57;2.38;;;0.00;;
72373;SDS011;60349;64.132;-21.820;2023-03-16T00:27:24;1.15;;;0.00;;
72373;SDS011;60349;64.132;-21.820;2023-03-16T00:29:51;0.70;;;0.00;;
72373;SDS011;60349;64.132;-21.820;2023-03-16T00:32:25;0.88;;;0.00;;
72373;SDS011;60349;64.132;-21.820;2023-03-16T00:34:51;2.83;;;0.00;;
72373;SDS011;60349;64.132;-21.820;2023-03-16T00:37:18;0.98;;;0.05;;
72373;SDS011;60349;64.132;-21.820;2023-03-16T00:39:45;3.28;;;0.00;;
72373;SDS011;60349;64.132;-21.820;2023-03-16T00:42:12;0.75;;;0.00;;
72373;SDS011;60349;64.132;-21.820;2023-03-16T00:44:38;0.52;;;0.00;;
72373;SDS011;60349;64.132;-21.820;2023-03-16T00:47:06;0.80;;;0.00;;
72373;SDS011;60349;64.132;-21.820;2023-03-16T00:49:33;1.65;;;0.00;;
72373;SDS011;60349;64.132;-21.820;2023-03-16T00:52:03;1.83;;;0.00;;
72373;SDS011;60349;64.132;-21.820;2023-03-16T00:54:30;0.45;;;0.00;;
72373;SDS011;60349;64.132;-21.820;2023-03-16T00:56:59;2.88;;;0.00;;
72373;SDS011;60349;64.132;-21.820;2023-03-16T00:59:26;4.32;;;0.00;;
72373;SDS011;60349;64.132;-21.820;2023-03-16T01:01:53;0.30;;;0.00;;
72373;SDS011;60349;64.132;-21.820;2023-03-16T01:04:19;0.57;;;0.00;;
72373;SDS011;60349;64.132;-21.820;2023-03-16T01:06:45;0.88;;;0.00;;
72373;SDS011;60349;64.132;-21.820;2023-03-16T01:09:11;0.98;;;0.00;;
72373;SDS011;60349;64.132;-21.820;2023-03-16T01:11:39;0.20;;;0.00;;
72373;SDS011;60349;64.132;-21.820;2023-03-16T01:14:07;1.13;;;0.00;;
72373;SDS011;60349;64.132;-21.820;2023-03-16T01:16:34;0.32;;;0.00;;
72373;SDS011;60349;64.132;-21.820;2023-03-16T01:19:00;2.25;;;0.00;;
72373;SDS011;60349;64.132;-21.820;2023-03-16T01:21:26;2.28;;;0.00;;
72373;SDS011;60349;64.132;-21.820;2023-03-16T01:23:53;0.70;;;0.55;;
72373;SDS011;60349;64.132;-21.820;2023-03-16T01:26:19;0.90;;;0.00;;
72373;SDS011;60349;64.132;-21.820;2023-03-16T01:28:47;2.85;;;0.00;;
72373;SDS011;60349;64.132;-21.820;2023-03-16T01:31:14;0.15;;;0.00;;
72373;SDS011;60349;64.132;-21.820;2023-03-16T01:33:40;0.52;;;0.00;;
72373;SDS011;60349;64.132;-21.820;2023-03-16T01:36:08;1.83;;;0.00;;
72373;SDS011;60349;64.132;-21.820;2023-03-16T01:38:35;2.13;;;0.00;;
72373;SDS011;60349;64.132;-21.820;2023-03-16T01:41:01;1.00;;;0.00;;
72373;SDS011;60349;64.132;-21.820;2023-03-16T01:43:29;0.20;;;0.00;;
72373;SDS011;60349;64.132;-21.820;2023-03-16T01:48:27;0.98;;;0.30;;
72373;SDS011;60349;64.132;-21.820;2023-03-16T01:50:54;0.20;;;0.00;;
72373;SDS011;60349;64.132;-21.820;2023-03-16T01:53:21;1.30;;;0.00;;
72373;SDS011;60349;64.132;-21.820;2023-03-16T01:55:48;1.38;;;0.00;;
72373;SDS011;60349;64.132;-21.820;2023-03-16T01:58:14;1.55;;;0.00;;
72373;SDS011;60349;64.132;-21.820;2023-03-16T02:00:41;0.63;;;0.00;;
72373;SDS011;60349;64.132;-21.820;2023-03-16T02:03:10;0.88;;;0.00;;
72373;SDS011;60349;64.132;-21.820;2023-03-16T02:05:39;1.23;;;0.00;;
72373;SDS011;60349;64.132;-21.820;2023-03-16T02:08:07;3.42;;;0.00;;
72373;SDS011;60349;64.132;-21.820;2023-03-16T02:10:34;1.25;;;0.00;;
72373;SDS011;60349;64.132;-21.820;2023-03-16T02:13:01;0.73;;;0.00;;
72373;SDS011;60349;64.132;-21.820;2023-03-16T02:15:28;1.15;;;0.00;;
72373;SDS011;60349;64.132;-21.820;2023-03-16T02:17:54;1.85;;;0.00;;
72373;SDS011;60349;64.132;-21.820;2023-03-16T02:22:53;0.43;;;0.00;;
72373;SDS011;60349;64.132;-21.820;2023-03-16T02:25:24;0.20;;;0.00;;
72373;SDS011;60349;64.132;-21.820;2023-03-16T02:30:23;1.35;;;0.00;;
72373;SDS011;60349;64.132;-21.820;2023-03-16T02:32:49;1.65;;;0.00;;
72373;SDS011;60349;64.132;-21.820;2023-03-16T02:35:17;2.13;;;0.00;;
72373;SDS011;60349;64.132;-21.820;2023-03-16T02:37:43;0.70;;;0.00;;
72373;SDS011;60349;64.132;-21.820;2023-03-16T02:40:23;0.77;;;0.00;;
72373;SDS011;60349;64.132;-21.820;2023-03-16T02:42:52;0.95;;;0.00;;
72373;SDS011;60349;64.132;-21.820;2023-03-16T02:45:19;0.55;;;0.08;;
72373;SDS011;60349;64.132;-21.820;2023-03-16T02:47:45;0.20;;;0.00;;
72373;SDS011;60349;64.132;-21.820;2023-03-16T02:50:12;0.63;;;0.10;;
72373;SDS011;60349;64.132;-21.820;2023-03-16T02:52:38;1.35;;;0.00;;
72373;SDS011;60349;64.132;-21.820;2023-03-16T02:55:05;0.30;;;0.00;;
72373;SDS011;60349;64.132;-21.820;2023-03-16T02:57:32;0.22;;;0.00;;
72373;SDS011;60349;64.132;-21.820;2023-03-16T02:59:58;2.35;;;0.00;;
72373;SDS011;60349;64.132;-21.820;2023-03-16T03:02:25;0.47;;;0.00;;
72373;SDS011;60349;64.132;-21.820;2023-03-16T03:04:51;0.80;;;0.00;;
72373;SDS011;60349;64.132;-21.820;2023-03-16T03:07:19;1.85;;;0.00;;
72373;SDS011;60349;64.132;-21.820;2023-03-16T03:09:45;1.30;;;0.00;;
72373;SDS011;60349;64.132;-21.820;2023-03-16T03:12:11;1.83;;;0.00;;
72373;SDS011;60349;64.132;-21.820;2023-03-16T03:14:38;0.15;;;0.00;;
72373;SDS011;60349;64.132;-21.820;2023-03-16T03:17:08;0.73;;;0.00;;
72373;SDS011;60349;64.132;-21.820;2023-03-16T03:19:34;0.82;;;0.00;;
72373;SDS011;60349;64.132;-21.820;2023-03-16T03:22:01;1.60;;;0.00;;
72373;SDS011;60349;64.132;-21.820;2023-03-16T03:24:30;0.47;;;0.00;;
72373;SDS011;60349;64.132;-21.820;2023-03-16T03:26:56;0.55;;;0.00;;
72373;SDS011;60349;64.132;-21.820;2023-03-16T03:29:29;0.30;;;0.00;;
72373;SDS011;60349;64.132;-21.820;2023-03-16T03:32:04;0.60;;;0.00;;
72373;SDS011;60349;64.132;-21.820;2023-03-16T03:34:31;0.77;;;0.00;;
72373;SDS011;60349;64.132;-21.820;2023-03-16T03:36:57;0.50;;;0.00;;
72373;SDS011;60349;64.132;-21.820;2023-03-16T03:39:24;0.28;;;0.00;;
72373;SDS011;60349;64.132;-21.820;2023-03-16T03:41:50;0.30;;;0.00;;
72373;SDS011;60349;64.132;-21.820;2023-03-16T03:44:22;0.50;;;0.00;;
72373;SDS011;60349;64.132;-21.820;2023-03-16T03:46:48;0.30;;;0.00;;
72373;SDS011;60349;64.132;-21.820;2023-03-16T03:49:15;0.20;;;0.00;;
72373;SDS011;60349;64.132;-21.820;2023-03-16T03:51:42;2.08;;;0.10;;
72373;SDS011;60349;64.132;-21.820;2023-03-16T03:54:08;0.57;;;0.00;;
72373;SDS011;60349;64.132;-21.820;2023-03-16T03:56:35;2.03;;;0.00;;
72373;SDS011;60349;64.132;-21.820;2023-03-16T03:59:01;1.27;;;0.00;;
72373;SDS011;60349;64.132;-21.820;2023-03-16T04:01:27;0.43;;;0.00;;
72373;SDS011;60349;64.132;-21.820;2023-03-16T04:03:53;0.47;;;0.00;;
72373;SDS011;60349;64.132;-21.820;2023-03-16T04:06:19;0.20;;;0.00;;
72373;SDS011;60349;64.132;-21.820;2023-03-16T04:08:45;1.13;;;0.00;;
72373;SDS011;60349;64.132;-21.820;2023-03-16T04:11:11;0.30;;;0.00;;
72373;SDS011;60349;64.132;-21.820;2023-03-16T04:13:37;0.50;;;0.00;;
72373;SDS011;60349;64.132;-21.820;2023-03-16T04:16:03;0.70;;;0.00;;
72373;SDS011;60349;64.132;-21.820;2023-03-16T04:18:30;1.13;;;0.00;;
72373;SDS011;60349;64.132;-21.820;2023-03-16T04:21:05;0.32;;;0.00;;
72373;SDS011;60349;64.132;-21.820;2023-03-16T04:23:32;1.65;;;0.10;;
72373;SDS011;60349;64.132;-21.820;2023-03-16T04:25:59;0.70;;;0.00;;
72373;SDS011;60349;64.132;-21.820;2023-03-16T04:28:25;0.20;;;0.00;;
72373;SDS011;60349;64.132;-21.820;2023-03-16T04:30:51;0.93;;;0.00;;
72373;SDS011;60349;64.132;-21.820;2023-03-16T04:33:21;1.35;;;0.10;;
72373;SDS011;60349;64.132;-21.820;2023-03-16T04:35:47;0.68;;;0.00;;
72373;SDS011;60349;64.132;-21.820;2023-03-16T04:38:13;3.33;;;0.00;;
72373;SDS011;60349;64.132;-21.820;2023-03-16T04:40:39;0.40;;;0.00;;
72373;SDS011;60349;64.132;-21.820;2023-03-16T04:43:06;0.77;;;0.00;;
72373;SDS011;60349;64.132;-21.820;2023-03-16T04:45:32;1.92;;;0.10;;
72373;SDS011;60349;64.132;-21.820;2023-03-16T04:47:58;1.10;;;0.13;;
72373;SDS011;60349;64.132;-21.820;2023-03-16T04:50:24;0.90;;;0.00;;
72373;SDS011;60349;64.132;-21.820;2023-03-16T04:52:50;0.73;;;0.00;;
72373;SDS011;60349;64.132;-21.820;2023-03-16T04:55:16;2.38;;;0.20;;
72373;SDS011;60349;64.132;-21.820;2023-03-16T04:57:42;3.75;;;1.25;;
72373;SDS011;60349;64.132;-21.820;2023-03-16T05:00:10;3.58;;;0.75;;
72373;SDS011;60349;64.132;-21.820;2023-03-16T05:02:45;3.25;;;1.08;;
72373;SDS011;60349;64.132;-21.820;2023-03-16T05:05:11;4.35;;;0.40;;
72373;SDS011;60349;64.132;-21.820;2023-03-16T05:07:37;2.30;;;0.35;;
72373;SDS011;60349;64.132;-21.820;2023-03-16T05:10:06;3.00;;;0.40;;
72373;SDS011;60349;64.132;-21.820;2023-03-16T05:12:32;2.65;;;0.30;;
72373;SDS011;60349;64.132;-21.820;2023-03-16T05:14:58;1.40;;;0.20;;
72373;SDS011;60349;64.132;-21.820;2023-03-16T05:17:25;1.55;;;0.30;;
72373;SDS011;60349;64.132;-21.820;2023-03-16T05:19:51;1.50;;;0.20;;
72373;SDS011;60349;64.132;-21.820;2023-03-16T05:22:17;2.40;;;0.40;;
72373;SDS011;60349;64.132;-21.820;2023-03-16T05:24:43;1.88;;;0.10;;
72373;SDS011;60349;64.132;-21.820;2023-03-16T05:27:09;1.85;;;0.30;;
72373;SDS011;60349;64.132;-21.820;2023-03-16T05:29:35;1.85;;;0.10;;
72373;SDS011;60349;64.132;-21.820;2023-03-16T05:32:01;0.90;;;0.10;;
72373;SDS011;60349;64.132;-21.820;2023-03-16T05:34:28;1.27;;;0.20;;
72373;SDS011;60349;64.132;-21.820;2023-03-16T05:36:55;1.35;;;0.10;;
72373;SDS011;60349;64.132;-21.820;2023-03-16T05:39:22;2.88;;;0.10;;
72373;SDS011;60349;64.132;-21.820;2023-03-16T05:41:48;1.30;;;0.10;;
72373;SDS011;60349;64.132;-21.820;2023-03-16T05:44:14;1.00;;;0.10;;
72373;SDS011;60349;64.132;-21.820;2023-03-16T05:46:40;1.90;;;0.10;;
72373;SDS011;60349;64.132;-21.820;2023-03-16T05:49:09;0.93;;;0.10;;
72373;SDS011;60349;64.132;-21.820;2023-03-16T05:51:37;0.80;;;0.10;;
72373;SDS011;60349;64.132;-21.820;2023-03-16T05:54:03;1.15;;;0.10;;
72373;SDS011;60349;64.132;-21.820;2023-03-16T05:56:29;0.50;;;0.00;;
72373;SDS011;60349;64.132;-21.820;2023-03-16T05:58:56;0.85;;;0.10;;
72373;SDS011;60349;64.132;-21.820;2023-03-16T06:01:24;1.58;;;0.10;;
72373;SDS011;60349;64.132;-21.820;2023-03-16T06:03:50;2.92;;;0.05;;
72373;SDS011;60349;64.132;-21.820;2023-03-16T06:06:20;1.17;;;0.10;;
72373;SDS011;60349;64.132;-21.820;2023-03-16T06:08:47;0.50;;;0.10;;
72373;SDS011;60349;64.132;-21.820;2023-03-16T06:11:13;3.28;;;0.00;;
72373;SDS011;60349;64.132;-21.820;2023-03-16T06:13:39;0.40;;;0.00;;
72373;SDS011;60349;64.132;-21.820;2023-03-16T06:16:05;1.13;;;0.00;;
72373;SDS011;60349;64.132;-21.820;2023-03-16T06:18:32;1.08;;;0.00;;
72373;SDS011;60349;64.132;-21.820;2023-03-16T06:20:58;0.57;;;0.00;;
72373;SDS011;60349;64.132;-21.820;2023-03-16T06:23:25;0.85;;;0.00;;
72373;SDS011;60349;64.132;-21.820;2023-03-16T06:25:51;1.10;;;0.00;;
72373;SDS011;60349;64.132;-21.820;2023-03-16T06:28:20;1.98;;;0.17;;
72373;SDS011;60349;64.132;-21.820;2023-03-16T06:30:47;0.90;;;0.10;;
72373;SDS011;60349;64.132;-21.820;2023-03-16T06:33:13;0.77;;;0.05;;
72373;SDS011;60349;64.132;-21.820;2023-03-16T06:35:39;1.35;;;0.00;;
72373;SDS011;60349;64.132;-21.820;2023-03-16T06:38:05;0.45;;;0.00;;
72373;SDS011;60349;64.132;-21.820;2023-03-16T06:40:31;0.77;;;0.00;;
72373;SDS011;60349;64.132;-21.820;2023-03-16T06:42:58;0.70;;;0.00;;
72373;SDS011;60349;64.132;-21.820;2023-03-16T06:45:24;2.38;;;0.10;;
72373;SDS011;60349;64.132;-21.820;2023-03-16T06:47:50;0.75;;;0.00;;
72373;SDS011;60349;64.132;-21.820;2023-03-16T06:50:16;2.38;;;0.00;;
72373;SDS011;60349;64.132;-21.820;2023-03-16T06:52:42;1.48;;;0.10;;
72373;SDS011;60349;64.132;-21.820;2023-03-16T06:55:09;1.27;;;0.00;;
72373;SDS011;60349;64.132;-21.820;2023-03-16T06:57:36;1.58;;;0.10;;
72373;SDS011;60349;64.132;-21.820;2023-03-16T07:00:03;2.95;;;0.10;;
72373;SDS011;60349;64.132;-21.820;2023-03-16T07:02:31;1.55;;;0.10;;
72373;SDS011;60349;64.132;-21.820;2023-03-16T07:04:59;1.95;;;0.00;;
72373;SDS011;60349;64.132;-21.820;2023-03-16T07:07:26;0.93;;;0.00;;
72373;SDS011;60349;64.132;-21.820;2023-03-16T07:09:52;3.45;;;0.10;;
72373;SDS011;60349;64.132;-21.820;2023-03-16T07:12:18;2.42;;;0.00;;
72373;SDS011;60349;64.132;-21.820;2023-03-16T07:14:44;2.15;;;0.00;;
72373;SDS011;60349;64.132;-21.820;2023-03-16T07:17:10;2.38;;;0.00;;
72373;SDS011;60349;64.132;-21.820;2023-03-16T07:19:36;3.88;;;0.20;;
72373;SDS011;60349;64.132;-21.820;2023-03-16T07:22:02;1.55;;;0.00;;
72373;SDS011;60349;64.132;-21.820;2023-03-16T07:24:28;6.45;;;0.10;;
72373;SDS011;60349;64.132;-21.820;2023-03-16T07:26:55;1.35;;;0.10;;
72373;SDS011;60349;64.132;-21.820;2023-03-16T07:29:21;3.42;;;0.08;;
72373;SDS011;60349;64.132;-21.820;2023-03-16T07:31:47;2.63;;;0.03;;
72373;SDS011;60349;64.132;-21.820;2023-03-16T07:34:13;7.85;;;0.47;;
72373;SDS011;60349;64.132;-21.820;2023-03-16T07:36:39;6.38;;;0.10;;
72373;SDS011;60349;64.132;-21.820;2023-03-16T07:39:05;2.58;;;0.15;;
72373;SDS011;60349;64.132;-21.820;2023-03-16T07:41:32;2.35;;;0.10;;
72373;SDS011;60349;64.132;-21.820;2023-03-16T07:43:58;6.00;;;0.10;;
72373;SDS011;60349;64.132;-21.820;2023-03-16T07:46:24;8.32;;;0.30;;
72373;SDS011;60349;64.132;-21.820;2023-03-16T07:48:50;7.03;;;0.10;;
72373;SDS011;60349;64.132;-21.820;2023-03-16T07:51:16;9.13;;;0.68;;
72373;SDS011;60349;64.132;-21.820;2023-03-16T07:53:42;4.20;;;0.10;;
72373;SDS011;60349;64.132;-21.820;2023-03-16T07:56:08;9.05;;;0.10;;
72373;SDS011;60349;64.132;-21.820;2023-03-16T07:58:36;9.55;;;0.10;;
72373;SDS011;60349;64.132;-21.820;2023-03-16T08:01:02;2.70;;;0.10;;
72373;SDS011;60349;64.132;-21.820;2023-03-16T08:03:28;3.40;;;0.10;;
72373;SDS011;60349;64.132;-21.820;2023-03-16T08:05:56;7.25;;;0.10;;
72373;SDS011;60349;64.132;-21.820;2023-03-16T08:08:22;5.07;;;0.10;;
72373;SDS011;60349;64.132;-21.820;2023-03-16T08:10:48;2.83;;;0.30;;
72373;SDS011;60349;64.132;-21.820;2023-03-16T08:13:16;5.57;;;0.40;;
72373;SDS011;60349;64.132;-21.820;2023-03-16T08:15:46;3.83;;;0.30;;
72373;SDS011;60349;64.132;-21.820;2023-03-16T08:18:12;7.30;;;0.20;;
72373;SDS011;60349;64.132;-21.820;2023-03-16T08:20:38;6.50;;;0.20;;
72373;SDS011;60349;64.132;-21.820;2023-03-16T08:23:05;7.93;;;0.30;;
72373;SDS011;60349;64.132;-21.820;2023-03-16T08:25:32;5.03;;;0.10;;
72373;SDS011;60349;64.132;-21.820;2023-03-16T08:27:58;10.82;;;0.38;;
72373;SDS011;60349;64.132;-21.820;2023-03-16T08:30:24;6.60;;;0.30;;
72373;SDS011;60349;64.132;-21.820;2023-03-16T08:32:50;13.18;;;0.20;;
72373;SDS011;60349;64.132;-21.820;2023-03-16T08:35:16;8.20;;;0.63;;
72373;SDS011;60349;64.132;-21.820;2023-03-16T08:37:43;9.45;;;0.52;;
72373;SDS011;60349;64.132;-21.820;2023-03-16T08:40:10;11.00;;;0.13;;
72373;SDS011;60349;64.132;-21.820;2023-03-16T08:42:41;8.95;;;0.20;;
72373;SDS011;60349;64.132;-21.820;2023-03-16T08:45:09;7.10;;;0.20;;
72373;SDS011;60349;64.132;-21.820;2023-03-16T08:47:35;8.45;;;0.90;;
72373;SDS011;60349;64.132;-21.820;2023-03-16T08:50:03;10.13;;;0.65;;
72373;SDS011;60349;64.132;-21.820;2023-03-16T08:52:32;10.00;;;1.42;;
72373;SDS011;60349;64.132;-21.820;2023-03-16T08:55:00;18.40;;;2.15;;
72373;SDS011;60349;64.132;-21.820;2023-03-16T08:57:29;14.05;;;1.08;;
72373;SDS011;60349;64.132;-21.820;2023-03-16T08:59:55;12.95;;;0.93;;
72373;SDS011;60349;64.132;-21.820;2023-03-16T09:02:21;13.77;;;1.35;;
72373;SDS011;60349;64.132;-21.820;2023-03-16T09:04:48;18.85;;;1.23;;
72373;SDS011;60349;64.132;-21.820;2023-03-16T09:07:14;8.40;;;0.80;;
72373;SDS011;60349;64.132;-21.820;2023-03-16T09:09:40;15.32;;;0.90;;
72373;SDS011;60349;64.132;-21.820;2023-03-16T09:12:07;8.88;;;0.50;;
72373;SDS011;60349;64.132;-21.820;2023-03-16T09:14:33;11.52;;;0.93;;
72373;SDS011;60349;64.132;-21.820;2023-03-16T09:17:02;9.90;;;0.43;;
72373;SDS011;60349;64.132;-21.820;2023-03-16T09:19:29;10.45;;;0.40;;
72373;SDS011;60349;64.132;-21.820;2023-03-16T09:21:57;6.43;;;0.30;;
72373;SDS011;60349;64.132;-21.820;2023-03-16T09:24:23;7.60;;;0.47;;
72373;SDS011;60349;64.132;-21.820;2023-03-16T09:26:50;13.02;;;1.20;;
72373;SDS011;60349;64.132;-21.820;2023-03-16T09:29:16;7.90;;;0.80;;
72373;SDS011;60349;64.132;-21.820;2023-03-16T09:31:43;7.68;;;0.45;;
72373;SDS011;60349;64.132;-21.820;2023-03-16T09:34:10;7.50;;;1.20;;
72373;SDS011;60349;64.132;-21.820;2023-03-16T09:36:36;5.22;;;0.90;;
72373;SDS011;60349;64.132;-21.820;2023-03-16T09:39:02;9.40;;;2.13;;
72373;SDS011;60349;64.132;-21.820;2023-03-16T09:44:16;10.77;;;2.75;;
72373;SDS011;60349;64.132;-21.820;2023-03-16T09:46:46;30.33;;;4.07;;
72373;SDS011;60349;64.132;-21.820;2023-03-16T09:49:15;16.10;;;2.25;;
72373;SDS011;60349;64.132;-21.820;2023-03-16T09:54:19;14.73;;;3.35;;
72373;SDS011;60349;64.132;-21.820;2023-03-16T09:56:47;16.55;;;3.13;;
72373;SDS011;60349;64.132;-21.820;2023-03-16T09:59:14;15.32;;;3.67;;
72373;SDS011;60349;64.132;-21.820;2023-03-16T10:04:39;7.93;;;3.28;;
72373;SDS011;60349;64.132;-21.820;2023-03-16T10:09:36;9.88;;;3.22;;
72373;SDS011;60349;64.132;-21.820;2023-03-16T10:12:06;8.88;;;2.83;;
72373;SDS011;60349;64.132;-21.820;2023-03-16T10:14:53;10.35;;;3.58;;
72373;SDS011;60349;64.132;-21.820;2023-03-16T10:17:21;5.82;;;2.38;;
72373;SDS011;60349;64.132;-21.820;2023-03-16T10:19:51;10.18;;;2.55;;
72373;SDS011;60349;64.132;-21.820;2023-03-16T10:22:19;9.32;;;2.60;;
72373;SDS011;60349;64.132;-21.820;2023-03-16T10:25:03;6.47;;;2.70;;
72373;SDS011;60349;64.132;-21.820;2023-03-16T10:27:33;6.15;;;2.78;;
72373;SDS011;60349;64.132;-21.820;2023-03-16T10:30:00;8.70;;;2.72;;
72373;SDS011;60349;64.132;-21.820;2023-03-16T10:32:31;4.13;;;2.25;;
72373;SDS011;60349;64.132;-21.820;2023-03-16T10:35:02;7.47;;;1.95;;
72373;SDS011;60349;64.132;-21.820;2023-03-16T10:37:32;6.00;;;2.63;;
72373;SDS011;60349;64.132;-21.820;2023-03-16T10:39:58;6.40;;;2.58;;
72373;SDS011;60349;64.132;-21.820;2023-03-16T10:42:25;6.82;;;2.17;;
72373;SDS011;60349;64.132;-21.820;2023-03-16T10:44:57;9.80;;;2.20;;
72373;SDS011;60349;64.132;-21.820;2023-03-16T10:47:27;5.10;;;1.85;;
72373;SDS011;60349;64.132;-21.820;2023-03-16T10:49:53;5.95;;;1.75;;
72373;SDS011;60349;64.132;-21.820;2023-03-16T10:54:56;4.45;;;1.90;;
72373;SDS011;60349;64.132;-21.820;2023-03-16T10:57:23;6.40;;;1.63;;
72373;SDS011;60349;64.132;-21.820;2023-03-16T10:59:51;5.18;;;1.60;;
72373;SDS011;60349;64.132;-21.820;2023-03-16T11:02:19;6.05;;;1.95;;
72373;SDS011;60349;64.132;-21.820;2023-03-16T11:04:47;8.05;;;1.83;;
72373;SDS011;60349;64.132;-21.820;2023-03-16T11:07:15;4.65;;;2.25;;
72373;SDS011;60349;64.132;-21.820;2023-03-16T11:09:42;5.35;;;1.73;;
72373;SDS011;60349;64.132;-21.820;2023-03-16T11:12:25;5.70;;;1.63;;
72373;SDS011;60349;64.132;-21.820;2023-03-16T11:14:52;7.68;;;1.67;;
72373;SDS011;60349;64.132;-21.820;2023-03-16T11:17:23;4.15;;;0.73;;
72373;SDS011;60349;64.132;-21.820;2023-03-16T11:19:53;5.78;;;0.77;;
72373;SDS011;60349;64.132;-21.820;2023-03-16T11:22:22;3.15;;;0.90;;
72373;SDS011;60349;64.132;-21.820;2023-03-16T11:27:37;5.93;;;0.45;;
72373;SDS011;60349;64.132;-21.820;2023-03-16T11:30:17;2.65;;;0.50;;
72373;SDS011;60349;64.132;-21.820;2023-03-16T11:32:50;3.88;;;0.50;;
72373;SDS011;60349;64.132;-21.820;2023-03-16T11:38:06;1.58;;;0.28;;
72373;SDS011;60349;64.132;-21.820;2023-03-16T11:48:23;1.23;;;0.10;;
72373;SDS011;60349;64.132;-21.820;2023-03-16T11:50:52;2.97;;;0.65;;
72373;SDS011;60349;64.132;-21.820;2023-03-16T11:53:35;2.30;;;0.20;;
72373;SDS011;60349;64.132;-21.820;2023-03-16T12:04:24;2.28;;;0.10;;
72373;SDS011;60349;64.132;-21.820;2023-03-16T12:09:49;2.10;;;0.10;;
72373;SDS011;60349;64.132;-21.820;2023-03-16T12:12:32;0.52;;;0.10;;
72373;SDS011;60349;64.132;-21.820;2023-03-16T12:17:30;0.38;;;0.08;;
72373;SDS011;60349;64.132;-21.820;2023-03-16T12:20:01;1.58;;;0.10;;
72373;SDS011;60349;64.132;-21.820;2023-03-16T12:22:38;0.60;;;0.00;;
72373;SDS011;60349;64.132;-21.820;2023-03-16T12:27:46;0.52;;;0.00;;
72373;SDS011;60349;64.132;-21.820;2023-03-16T12:35:51;1.35;;;0.00;;
72373;SDS011;60349;64.132;-21.820;2023-03-16T12:38:35;2.13;;;0.10;;
72373;SDS011;60349;64.132;-21.820;2023-03-16T12:41:10;0.82;;;0.00;;
72373;SDS011;60349;64.132;-21.820;2023-03-16T12:46:27;0.50;;;0.00;;
72373;SDS011;60349;64.132;-21.820;2023-03-16T12:48:56;2.45;;;0.00;;
72373;SDS011;60349;64.132;-21.820;2023-03-16T12:51:34;0.38;;;0.00;;
72373;SDS011;60349;64.132;-21.820;2023-03-16T12:54:00;1.38;;;0.00;;
72373;SDS011;60349;64.132;-21.820;2023-03-16T12:56:32;1.17;;;0.00;;
72373;SDS011;60349;64.132;-21.820;2023-03-16T12:59:01;3.90;;;0.45;;
72373;SDS011;60349;64.132;-21.820;2023-03-16T13:01:30;1.48;;;0.00;;
72373;SDS011;60349;64.132;-21.820;2023-03-16T13:04:05;1.00;;;0.00;;
72373;SDS011;60349;64.132;-21.820;2023-03-16T13:06:34;2.47;;;0.00;;
72373;SDS011;60349;64.132;-21.820;2023-03-16T13:09:01;2.60;;;0.00;;
72373;SDS011;60349;64.132;-21.820;2023-03-16T13:11:38;1.48;;;0.00;;
72373;SDS011;60349;64.132;-21.820;2023-03-16T13:14:06;1.55;;;0.00;;
72373;SDS011;60349;64.132;-21.820;2023-03-16T13:16:35;1.38;;;0.00;;
72373;SDS011;60349;64.132;-21.820;2023-03-16T13:21:46;1.38;;;0.00;;
72373;SDS011;60349;64.132;-21.820;2023-03-16T13:26:45;7.38;;;0.20;;
72373;SDS011;60349;64.132;-21.820;2023-03-16T13:31:42;2.72;;;0.03;;
72373;SDS011;60349;64.132;-21.820;2023-03-16T13:34:13;0.28;;;0.00;;
72373;SDS011;60349;64.132;-21.820;2023-03-16T13:36:39;1.38;;;0.00;;
72373;SDS011;60349;64.132;-21.820;2023-03-16T13:39:14;1.45;;;0.00;;
72373;SDS011;60349;64.132;-21.820;2023-03-16T13:41:52;1.33;;;0.00;;
72373;SDS011;60349;64.132;-21.820;2023-03-16T13:44:19;0.65;;;0.20;;
72373;SDS011;60349;64.132;-21.820;2023-03-16T13:46:47;1.33;;;0.00;;
72373;SDS011;60349;64.132;-21.820;2023-03-16T13:49:17;0.60;;;0.00;;
72373;SDS011;60349;64.132;-21.820;2023-03-16T13:51:44;1.70;;;0.00;;
72373;SDS011;60349;64.132;-21.820;2023-03-16T13:56:43;1.17;;;0.00;;
72373;SDS011;60349;64.132;-21.820;2023-03-16T13:59:09;1.33;;;0.00;;
72373;SDS011;60349;64.132;-21.820;2023-03-16T14:01:35;1.45;;;0.00;;
72373;SDS011;60349;64.132;-21.820;2023-03-16T14:04:05;2.40;;;0.00;;
72373;SDS011;60349;64.132;-21.820;2023-03-16T14:06:37;1.33;;;0.10;;
72373;SDS011;60349;64.132;-21.820;2023-03-16T14:09:06;1.67;;;0.00;;
72373;SDS011;60349;64.132;-21.820;2023-03-16T14:11:33;0.65;;;0.00;;
72373;SDS011;60349;64.132;-21.820;2023-03-16T14:13:59;0.85;;;0.00;;
72373;SDS011;60349;64.132;-21.820;2023-03-16T14:16:28;1.55;;;0.00;;
72373;SDS011;60349;64.132;-21.820;2023-03-16T14:19:03;0.77;;;0.00;;
72373;SDS011;60349;64.132;-21.820;2023-03-16T14:24:01;1.20;;;0.00;;
72373;SDS011;60349;64.132;-21.820;2023-03-16T14:26:41;0.35;;;0.00;;
72373;SDS011;60349;64.132;-21.820;2023-03-16T14:29:14;0.32;;;0.00;;
72373;SDS011;60349;64.132;-21.820;2023-03-16T14:31:43;0.57;;;0.00;;
72373;SDS011;60349;64.132;-21.820;2023-03-16T14:34:26;0.95;;;0.00;;
72373;SDS011;60349;64.132;-21.820;2023-03-16T14:37:06;0.77;;;0.00;;
72373;SDS011;60349;64.132;-21.820;2023-03-16T14:39:33;0.10;;;0.00;;
72373;SDS011;60349;64.132;-21.820;2023-03-16T14:42:03;3.50;;;0.00;;
72373;SDS011;60349;64.132;-21.820;2023-03-16T14:44:30;0.32;;;0.00;;
72373;SDS011;60349;64.132;-21.820;2023-03-16T14:46:58;0.20;;;0.00;;
72373;SDS011;60349;64.132;-21.820;2023-03-16T14:49:28;2.85;;;0.00;;
72373;SDS011;60349;64.132;-21.820;2023-03-16T14:51:59;1.30;;;0.00;;
72373;SDS011;60349;64.132;-21.820;2023-03-16T14:54:26;0.57;;;0.00;;
72373;SDS011;60349;64.132;-21.820;2023-03-16T14:56:53;0.63;;;0.00;;
72373;SDS011;60349;64.132;-21.820;2023-03-16T14:59:20;0.88;;;0.00;;
72373;SDS011;60349;64.132;-21.820;2023-03-16T15:01:46;0.82;;;0.00;;
72373;SDS011;60349;64.132;-21.820;2023-03-16T15:04:14;0.32;;;0.00;;
72373;SDS011;60349;64.132;-21.820;2023-03-16T15:06:40;1.83;;;0.00;;
72373;SDS011;60349;64.132;-21.820;2023-03-16T15:09:09;1.80;;;0.00;;
72373;SDS011;60349;64.132;-21.820;2023-03-16T15:11:42;0.28;;;0.00;;
72373;SDS011;60349;64.132;-21.820;2023-03-16T15:14:09;0.35;;;0.00;;
72373;SDS011;60349;64.132;-21.820;2023-03-16T15:16:58;0.50;;;0.00;;
72373;SDS011;60349;64.132;-21.820;2023-03-16T15:19:24;0.30;;;0.00;;
72373;SDS011;60349;64.132;-21.820;2023-03-16T15:21:50;0.77;;;0.00;;
72373;SDS011;60349;64.132;-21.820;2023-03-16T15:24:17;1.15;;;0.00;;
72373;SDS011;60349;64.132;-21.820;2023-03-16T15:26:43;0.93;;;0.00;;
72373;SDS011;60349;64.132;-21.820;2023-03-16T15:29:09;1.38;;;0.10;;
72373;SDS011;60349;64.132;-21.820;2023-03-16T15:31:36;0.73;;;0.00;;
72373;SDS011;60349;64.132;-21.820;2023-03-16T15:34:03;0.98;;;0.00;;
72373;SDS011;60349;64.132;-21.820;2023-03-16T15:36:29;0.35;;;0.00;;